Terminal Aerodrome Forecast
Issued by NWS

Home | Current Version | Previous Version | Text Only | Print | Product List | Glossary On
Versions: 1 2 3 4 5 6 7 8 9 10 11 12 13
000
FTUS43 KGLD 231126
TAFMCK
TAF
KMCK 231126Z 2312/2412 21006KT P6SM SKC
     FM231500 20012KT P6SM SKC
     FM231600 19015G25KT P6SM FEW250
     FM240300 16015G23KT P6SM FEW250
     FM240400 16015G23KT P6SM FEW250 WS020/18045KT
     FM240700 16016G24KT P6SM SCT200
     FM240900 16015G23KT P6SM SCT200 WS020/20040KT=

USA.gov is the U.S. government's official web portal to all federal, state and local government web resources and services.